createdAt,value
2023-04-05T00:01:25.477Z,20.40
2023-04-05T00:05:30.676Z,21.80
2023-04-05T00:09:32.721Z,22.23
2023-04-05T00:13:34.761Z,21.63
2023-04-05T00:17:36.865Z,21.00
2023-04-05T00:21:39.772Z,21.58
2023-04-05T00:25:41.846Z,21.00
2023-04-05T00:29:43.539Z,21.08
2023-04-05T00:33:46.426Z,25.63
2023-04-05T00:37:48.494Z,36.25
2023-04-05T00:41:50.626Z,31.23
2023-04-05T00:45:53.324Z,26.45
2023-04-05T00:49:55.458Z,27.35
2023-04-05T00:53:57.945Z,26.33
2023-04-05T00:58:00.423Z,26.25
2023-04-05T01:02:24.578Z,25.50
2023-04-05T01:06:47.802Z,27.45
2023-04-05T01:10:57.296Z,24.50
2023-04-05T01:15:00.312Z,24.52
2023-04-05T01:19:04.204Z,23.60
2023-04-05T01:23:34.279Z,23.67
2023-04-05T01:27:59.366Z,24.80
2023-04-05T01:32:11.586Z,23.30
2023-04-05T01:36:39.629Z,23.50
2023-04-05T01:40:42.386Z,17.50
2023-04-05T01:44:44.684Z,24.55
2023-04-05T01:48:46.924Z,25.15
2023-04-05T01:52:49.743Z,25.23
2023-04-05T01:56:51.963Z,26.40
2023-04-05T02:00:56.141Z,22.60
2023-04-05T02:04:58.846Z,21.35
2023-04-05T02:09:01.093Z,20.25
2023-04-05T02:13:03.210Z,21.95
2023-04-05T02:17:05.771Z,21.65
2023-04-05T02:21:10.723Z,21.65
2023-04-05T02:25:13.303Z,19.77
2023-04-05T02:29:15.435Z,20.92
2023-04-05T02:33:17.559Z,20.20
2023-04-05T02:37:20.828Z,20.55
2023-04-05T02:41:23.821Z,19.35
2023-04-05T02:45:27.825Z,20.65
2023-04-05T02:49:32.359Z,19.77
2023-04-05T02:53:37.560Z,19.15
2023-04-05T02:57:46.374Z,20.98
2023-04-05T03:02:01.536Z,20.52
2023-04-05T03:06:11.397Z,21.77
2023-04-05T03:10:18.797Z,21.10
2023-04-05T03:14:25.621Z,21.48
2023-04-05T03:18:29.689Z,21.05
2023-04-05T03:22:39.878Z,22.80
2023-04-05T03:26:46.749Z,22.05
2023-04-05T03:30:50.997Z,25.25
2023-04-05T03:34:55.361Z,22.50
2023-04-05T03:38:58.059Z,23.20
2023-04-05T03:43:00.178Z,24.55
2023-04-05T03:47:02.547Z,25.25
2023-04-05T03:51:06.470Z,30.83
2023-04-05T03:55:09.493Z,31.73
2023-04-05T03:59:11.741Z,28.80
2023-04-05T04:03:15.218Z,32.05
2023-04-05T04:07:21.134Z,21.77
2023-04-05T04:11:23.149Z,26.20
2023-04-05T04:15:25.475Z,26.75
2023-04-05T04:19:52.015Z,26.30
2023-04-05T04:24:20.366Z,50.78
2023-04-05T04:28:43.808Z,32.90
2023-04-05T04:33:10.099Z,32.22
2023-04-05T04:37:31.028Z,31.20
2023-04-05T04:41:54.920Z,32.08
2023-04-05T04:46:19.009Z,34.17
2023-04-05T04:50:36.027Z,33.60
2023-04-05T04:54:42.323Z,30.58
2023-04-05T04:58:44.426Z,34.53
2023-04-05T05:02:47.105Z,32.80
2023-04-05T05:06:54.166Z,34.00
2023-04-05T05:10:56.826Z,32.92
2023-04-05T05:14:59.253Z,34.90
2023-04-05T05:19:01.643Z,33.55
2023-04-05T05:23:13.507Z,31.15
2023-04-05T05:27:15.726Z,30.00
2023-04-05T05:31:17.940Z,28.83
2023-04-05T05:35:20.546Z,29.40
2023-04-05T05:39:23.601Z,33.83
2023-04-05T05:43:25.825Z,38.50
2023-04-05T05:47:27.726Z,36.75
2023-04-05T05:51:29.830Z,32.63
2023-04-05T05:55:32.176Z,30.77
2023-04-05T05:59:34.446Z,25.30
2023-04-05T06:03:36.666Z,25.73
2023-04-05T06:07:39.111Z,18.77
2023-04-05T06:11:53.316Z,20.48
2023-04-05T06:16:01.286Z,19.65
2023-04-05T06:20:03.617Z,20.73
2023-04-05T06:24:06.022Z,24.55
2023-04-05T06:28:08.193Z,23.63
2023-04-05T06:32:10.539Z,21.48
2023-04-05T06:36:13.012Z,22.88
2023-04-05T06:40:15.702Z,22.75
2023-04-05T06:44:17.783Z,20.75
2023-04-05T06:48:21.284Z,23.73
2023-04-05T06:52:23.238Z,21.42
2023-04-05T06:56:25.421Z,20.52
2023-04-05T07:00:27.622Z,19.73
2023-04-05T07:04:33.221Z,20.95
2023-04-05T07:08:35.537Z,15.63
2023-04-05T07:12:37.969Z,17.15
2023-04-05T07:16:40.086Z,15.07
2023-04-05T07:20:42.218Z,16.67
2023-04-05T07:24:47.091Z,15.27
2023-04-05T07:28:49.024Z,13.40
2023-04-05T07:32:51.215Z,13.82
2023-04-05T07:36:53.470Z,13.90
2023-04-05T07:40:55.687Z,14.18
2023-04-05T07:44:58.234Z,12.80
2023-04-05T07:49:00.500Z,12.68
2023-04-05T07:53:02.633Z,13.23
2023-04-05T07:57:04.640Z,14.55
2023-04-05T08:01:08.432Z,12.45
2023-04-05T08:05:10.627Z,12.45
2023-04-05T08:09:12.751Z,20.23
2023-04-05T08:13:14.809Z,21.63
2023-04-05T08:17:17.939Z,16.08
2023-04-05T08:21:20.011Z,15.10
2023-04-05T08:25:22.141Z,19.20
2023-04-05T08:29:24.257Z,21.58
2023-04-05T08:33:26.562Z,23.35
2023-04-05T08:37:28.773Z,21.35
2023-04-05T08:41:36.523Z,19.48
2023-04-05T08:45:46.877Z,25.00
2023-04-05T08:49:49.523Z,19.25
2023-04-05T08:53:52.898Z,27.30
2023-04-05T08:57:59.262Z,21.23
2023-04-05T09:02:03.998Z,20.77
2023-04-05T09:06:09.152Z,20.50
2023-04-05T09:10:14.609Z,20.20
2023-04-05T09:14:17.695Z,21.35
2023-04-05T09:18:26.773Z,20.48
2023-04-05T09:22:29.853Z,20.50
2023-04-05T09:30:37.207Z,16.65
2023-04-05T09:34:42.998Z,15.02
2023-04-05T09:39:08.549Z,18.67
2023-04-05T09:43:33.732Z,17.40
2023-04-05T09:47:35.497Z,16.55
2023-04-05T09:51:41.195Z,17.67
2023-04-05T09:55:46.121Z,17.02
2023-04-05T09:59:48.487Z,17.65
2023-04-05T10:03:50.718Z,16.75
2023-04-05T10:07:53.727Z,17.52
2023-04-05T10:11:57.118Z,18.60
2023-04-05T10:16:02.244Z,15.48
2023-04-05T10:20:19.684Z,15.52
2023-04-05T10:24:27.670Z,14.85
2023-04-05T10:28:37.782Z,17.25
2023-04-05T10:32:54.902Z,15.88
2023-04-05T10:37:03.946Z,14.20
2023-04-05T10:41:09.125Z,12.93
2023-04-05T10:45:15.591Z,9.20
2023-04-05T10:49:33.508Z,7.85
2023-04-05T10:53:37.693Z,11.13
2023-04-05T10:57:40.237Z,9.63
2023-04-05T11:01:43.280Z,10.85
2023-04-05T11:05:45.674Z,8.15
2023-04-05T11:09:55.896Z,9.80
2023-04-05T11:13:58.535Z,8.20
2023-04-05T11:18:16.032Z,7.78
2023-04-05T11:22:29.616Z,7.72
2023-04-05T11:26:53.069Z,6.10
2023-04-05T11:30:59.425Z,7.30
2023-04-05T11:35:06.305Z,7.82
2023-04-05T11:39:23.481Z,8.30
2023-04-05T11:43:27.875Z,6.60
2023-04-05T11:47:29.961Z,8.15
2023-04-05T11:51:33.224Z,12.68
2023-04-05T11:55:35.487Z,8.30
2023-04-05T11:59:37.484Z,9.15
2023-04-05T12:03:39.636Z,7.15
2023-04-05T12:07:41.789Z,6.90
2023-04-05T12:11:45.784Z,8.52
2023-04-05T12:15:48.021Z,11.05
2023-04-05T12:19:50.339Z,6.10
2023-04-05T12:23:53.351Z,5.00
2023-04-05T12:27:55.551Z,10.20
2023-04-05T12:31:57.711Z,7.60
2023-04-05T12:36:04.990Z,9.02
2023-04-05T12:40:08.237Z,5.68
2023-04-05T12:44:17.475Z,8.15
2023-04-05T12:48:27.123Z,5.53
2023-04-05T12:52:31.165Z,5.53
2023-04-05T12:56:33.420Z,15.93
2023-04-05T13:00:35.499Z,5.03
2023-04-05T13:04:37.509Z,5.53
2023-04-05T13:08:39.552Z,7.00
2023-04-05T13:12:41.693Z,5.57
2023-04-05T13:16:43.918Z,6.05
2023-04-05T13:20:46.551Z,6.63
2023-04-05T13:24:48.589Z,5.57
2023-04-05T13:28:50.875Z,5.15
2023-04-05T13:32:52.961Z,4.38
2023-04-05T13:36:54.993Z,5.95
2023-04-05T13:40:57.050Z,6.88
2023-04-05T13:44:59.045Z,6.97
2023-04-05T13:49:01.048Z,6.15
2023-04-05T13:53:02.664Z,6.90
2023-04-05T13:57:04.710Z,6.88
2023-04-05T14:01:06.853Z,7.25
2023-04-05T14:05:09.278Z,6.97
2023-04-05T14:09:11.604Z,8.77
2023-04-05T14:13:16.308Z,7.38
2023-04-05T14:17:18.688Z,8.43
2023-04-05T14:21:21.063Z,8.32
2023-04-05T14:25:23.064Z,9.15
2023-04-05T14:29:25.357Z,7.15
2023-04-05T14:33:27.431Z,6.53
2023-04-05T14:37:29.554Z,6.18
2023-04-05T14:41:31.612Z,6.60
2023-04-05T14:45:34.420Z,6.63
2023-04-05T14:49:36.450Z,5.35
2023-04-05T14:53:38.972Z,6.47
2023-04-05T14:57:41.527Z,5.63
2023-04-05T15:01:45.574Z,7.03
2023-04-05T15:05:48.370Z,7.72
2023-04-05T15:09:51.542Z,7.07
2023-04-05T15:13:53.585Z,6.53
2023-04-05T15:17:56.079Z,7.93
2023-04-05T15:21:58.269Z,9.68
2023-04-05T15:26:00.368Z,7.60
2023-04-05T15:30:03.773Z,8.05
2023-04-05T15:34:08.264Z,7.13
2023-04-05T15:38:10.563Z,7.57
2023-04-05T15:42:12.861Z,10.10
2023-04-05T15:46:14.941Z,5.78
2023-04-05T15:50:17.196Z,6.35
2023-04-05T15:54:20.827Z,6.43
2023-04-05T15:58:23.059Z,7.03
2023-04-05T16:02:27.820Z,5.95
2023-04-05T16:06:30.222Z,6.85
2023-04-05T16:10:32.257Z,6.95
2023-04-05T16:14:34.532Z,9.25
2023-04-05T16:18:37.087Z,7.13
2023-04-05T16:22:39.297Z,6.90
2023-04-05T16:26:41.383Z,8.73
2023-04-05T16:30:45.691Z,9.10
2023-04-05T16:34:49.572Z,9.60
2023-04-05T16:38:51.860Z,9.25
2023-04-05T16:42:55.070Z,8.25
2023-04-05T16:46:57.703Z,7.20
2023-04-05T16:51:00.838Z,7.55
2023-04-05T16:55:03.157Z,8.20
2023-04-05T16:59:07.573Z,6.72
2023-04-05T17:03:11.178Z,8.32
2023-04-05T17:07:13.644Z,8.18
2023-04-05T17:11:15.679Z,6.38
2023-04-05T17:15:17.847Z,7.22
2023-04-05T17:19:20.260Z,6.97
2023-04-05T17:23:24.023Z,7.22
2023-04-05T17:27:26.430Z,5.97
2023-04-05T17:31:28.787Z,6.90
2023-04-05T17:35:31.399Z,8.15
2023-04-05T17:39:33.742Z,7.35
2023-04-05T17:43:36.309Z,8.43
2023-04-05T17:47:38.620Z,11.02
2023-04-05T17:51:41.082Z,8.52
2023-04-05T17:55:43.799Z,7.45
2023-04-05T17:59:45.954Z,8.38
2023-04-05T18:03:48.139Z,8.52
2023-04-05T18:07:51.332Z,10.82
2023-04-05T18:11:53.812Z,8.13
2023-04-05T18:15:58.719Z,7.72
2023-04-05T18:20:01.170Z,8.40
2023-04-05T18:24:03.762Z,8.43
2023-04-05T18:28:19.417Z,10.07
2023-04-05T18:32:24.547Z,24.25
2023-04-05T18:36:27.019Z,22.98
2023-04-05T18:40:29.197Z,27.63
2023-04-05T18:44:31.621Z,17.33
2023-04-05T18:48:38.665Z,26.15
2023-04-05T18:52:41.151Z,12.55
2023-04-05T18:56:43.636Z,14.75
2023-04-05T19:00:45.942Z,14.68
2023-04-05T19:04:48.344Z,12.90
2023-04-05T19:08:50.934Z,13.20
2023-04-05T19:12:53.465Z,13.05
2023-04-05T19:16:56.093Z,14.45
2023-04-05T19:20:59.901Z,14.65
2023-04-05T19:25:02.122Z,14.10
2023-04-05T19:29:04.549Z,15.52
2023-04-05T19:33:06.943Z,18.20
2023-04-05T19:37:09.216Z,32.42
2023-04-05T19:41:11.210Z,21.73
2023-04-05T19:45:15.728Z,25.13
2023-04-05T19:49:34.338Z,26.58
2023-04-05T19:53:49.809Z,46.45
2023-04-05T19:57:52.087Z,38.30
2023-04-05T20:01:53.997Z,28.25
2023-04-05T20:06:13.374Z,23.70
2023-04-05T20:10:20.896Z,19.92
2023-04-05T20:14:35.288Z,27.10
2023-04-05T20:18:37.526Z,21.65
2023-04-05T20:46:39.109Z,17.60
2023-04-05T20:50:41.247Z,19.80
2023-04-05T20:54:44.153Z,18.08
2023-04-05T20:58:46.215Z,18.08
2023-04-05T21:02:48.494Z,21.55
2023-04-05T21:06:50.805Z,20.35
2023-04-05T21:10:56.567Z,21.50
2023-04-05T21:15:00.289Z,19.67
2023-04-05T21:19:02.530Z,25.65
2023-04-05T21:23:05.111Z,25.10
2023-04-05T21:27:07.256Z,25.90
2023-04-05T21:31:09.440Z,28.58
2023-04-05T21:35:11.850Z,27.15
2023-04-05T21:39:14.018Z,23.13
2023-04-05T21:43:16.234Z,22.65
2023-04-05T21:47:18.926Z,22.63
2023-04-05T21:51:21.492Z,22.63
2023-04-05T21:55:23.639Z,21.17
2023-04-05T21:59:26.092Z,19.02
2023-04-05T22:03:28.268Z,16.92
2023-04-05T22:07:30.691Z,16.95
2023-04-05T22:11:35.525Z,17.25
2023-04-05T22:15:37.990Z,16.77
2023-04-05T22:19:43.788Z,18.58
2023-04-05T22:23:46.583Z,40.72
2023-04-05T22:27:48.631Z,25.50
2023-04-05T22:31:50.899Z,22.05
2023-04-05T22:35:53.081Z,20.60
2023-04-05T22:39:55.165Z,22.30
2023-04-05T22:43:57.152Z,20.48
2023-04-05T22:47:59.444Z,21.95
2023-04-05T22:52:01.746Z,21.27
2023-04-05T22:56:03.878Z,20.42
2023-04-05T23:00:06.642Z,18.65
2023-04-05T23:04:09.257Z,18.80
2023-04-05T23:08:11.531Z,17.88
2023-04-05T23:12:13.850Z,21.02
2023-04-05T23:16:16.912Z,19.45
2023-04-05T23:20:19.233Z,14.18
2023-04-05T23:24:21.316Z,13.63
2023-04-05T23:28:23.385Z,11.55
2023-04-05T23:32:25.407Z,11.82
2023-04-05T23:36:28.861Z,12.45
2023-04-05T23:40:31.026Z,10.63
2023-04-05T23:44:33.326Z,13.40
2023-04-05T23:48:35.535Z,13.15
2023-04-05T23:52:37.593Z,11.50
2023-04-05T23:56:39.635Z,12.05
